Olivesburg, Ohio
Current Conditions -  °F | °C
As of 1:05 PM on Thursday 29 Jan 2015 (Local Time) from KMFD Reporting Station
Overcast Overcast  
Wind Chill: 28°   Ceiling: 2900
Heat Index: 38°   Visibility: 10mi
Dew Point: 31°   Wind: 20mph
Humidity: 76%   Direction: 200°SSW
Pressure: 29.74"   Gusts: 28mph
Location:  40.8738°N, 82.3197°W
Report Text: KMFD 291805Z 20017G24KT 10SM OVC029 03/M01 A2974 RMK AO2 T00331006
Loading
Personal Weather Stations






























Interactive Weather Map New forecast layout! Learn more

10-Day Weather Forecast

Advertisements
Track Severe Weather on mobile